Time;durP1;ratioP1;P1;durP2;ratioP2;P2;SDS_P1;SDS_P2;PMS_P1;PMS_P2;Temp;Humidity;BMP_temperature;BMP_pressure;BME280_temperature;BME280_humidity;BME280_pressure;Samples;Min_cycle;Max_cycle;Signal;HPM_P1;HPM_P2
2021/07/27 00:01:49;;;;;;;;;;;;;;;;;;5037067;28;1435;-81
2021/07/27 00:04:16;;;;;;;;;;;;;;;;;;4997644;28;1212;-81
2021/07/27 00:06:42;;;;;;;;;;;;;;;;;;4997503;28;1176;-81
2021/07/27 00:12:02;;;;;;;;;;;;;;;;;;4977720;28;1047;-81
2021/07/27 00:14:29;;;;;;;;;;;;;;;;;;4977884;28;1887;-81
2021/07/27 00:16:56;;;;;;;;;;;;;;;;;;4977877;28;1177;-82
2021/07/27 00:19:23;;;;;;;;;;;;;;;;;;4977820;28;1296;-82
2021/07/27 00:21:50;;;;;;;;;;;;;;;;;;4977787;28;1366;-82
2021/07/27 00:24:26;;;;;;;;;;;;;;;;;;4996833;28;1743;-81
2021/07/27 00:26:54;;;;;;;;;;;;;;;;;;4980935;28;1315;-82
2021/07/27 00:29:22;;;;;;;;;;;;;;;;;;4997319;28;951;-81
2021/07/27 00:31:55;;;;;;;;;;;;;;;;;;4980754;28;1358;-81
2021/07/27 00:34:21;;;;;;;;;;;;;;;;;;4977618;28;1939;-81
2021/07/27 00:36:48;;;;;;;;;;;;;;;;;;4961279;28;1355;-81
2021/07/27 00:39:25;;;;;;;;;;;;;;;;;;4977575;28;939;-82
2021/07/27 00:42:08;;;;;;;;;;;;;;;;;;4977742;28;1087;-81
2021/07/27 00:44:34;;;;;;;;;;;;;;;;;;4977298;28;1279;-82
2021/07/27 00:47:00;;;;;;;;;;;;;;;;;;4977385;28;1383;-82
2021/07/27 00:49:44;;;;;;;;;;;;;;;;;;5032600;28;1335;-82
2021/07/27 00:52:09;;;;;;;;;;;;;;;;;;5036573;28;1304;-81
2021/07/27 00:54:35;;;;;;;;;;;;;;;;;;5037920;28;1874;-82
2021/07/27 00:57:02;;;;;;;;;;;;;;;;;;5036721;28;1350;-82
2021/07/27 00:59:29;;;;;;;;;;;;;;;;;;5036205;28;1157;-82
2021/07/27 01:02:02;;;;;;;;;;;;;;;;;;5052178;28;1296;-82
2021/07/27 01:04:36;;;;;;;;;;;;;;;;;;5036566;28;1329;-82
2021/07/27 01:07:01;;;;;;;;;;;;;;;;;;5037812;28;941;-81
2021/07/27 01:09:42;;;;;;;;;;;;;;;;;;5036507;28;1357;-82
2021/07/27 01:12:13;;;;;;;;;;;;;;;;;;5036490;28;1282;-81
2021/07/27 01:14:39;;;;;;;;;;;;;;;;;;5056467;28;1890;-82
2021/07/27 01:20:10;;;;;;;;;;;;;;;;;;5057604;28;594;-81
2021/07/27 01:46:56;;;;;;;;;;;;;;;;;;5057001;28;1274;-82
2021/07/27 01:49:32;;;;;;;;;;;;;;;;;;5055726;28;1196;-82
2021/07/27 01:51:57;;;;;;;;;;;;;;;;;;5051093;28;1255;-81
2021/07/27 01:54:29;;;;;;;;;;;;;;;;;;5052331;28;2015;-82
2021/07/27 01:57:00;;;;;;;;;;;;;;;;;;5052319;28;1395;-81
2021/07/27 01:59:40;;;;;;;;;;;;;;;;;;5036958;28;955;-81
2021/07/27 02:04:45;;;;;;;;;;;;;;;;;;5036657;28;1024;-83
2021/07/27 02:07:10;;;;;;;;;;;;;;;;;;5051460;28;1370;-83
2021/07/27 02:09:46;;;;;;;;;;;;;;;;;;5051362;28;1218;-83
2021/07/27 02:12:22;;;;;;;;;;;;;;;;;;5051911;28;1264;-84
2021/07/27 02:15:06;;;;;;;;;;;;;;;;;;5052008;28;1890;-84
2021/07/27 02:20:17;;;;;;;;;;;;;;;;;;5036595;28;613;-84
2021/07/27 02:22:44;;;;;;;;;;;;;;;;;;5052140;28;1527;-83
2021/07/27 02:27:54;;;;;;;;;;;;;;;;;;5036434;28;644;-84
2021/07/27 02:30:21;;;;;;;;;;;;;;;;;;5035226;28;1333;-84
2021/07/27 02:32:56;;;;;;;;;;;;;;;;;;5034926;28;1886;-84
2021/07/27 02:35:21;;;;;;;;;;;;;;;;;;5035183;28;1207;-84
2021/07/27 02:38:05;;;;;;;;;;;;;;;;;;5035021;28;1400;-83
2021/07/27 02:40:31;;;;;;;;;;;;;;;;;;5035059;28;1337;-84
2021/07/27 02:43:10;;;;;;;;;;;;;;;;;;5034915;28;1254;-84
2021/07/27 02:45:37;;;;;;;;;;;;;;;;;;5034953;28;1354;-84
2021/07/27 02:48:14;;;;;;;;;;;;;;;;;;5034933;28;1170;-84
2021/07/27 02:50:40;;;;;;;;;;;;;;;;;;5036037;28;917;-84
2021/07/27 02:53:05;;;;;;;;;;;;;;;;;;5045452;28;1894;-85
2021/07/27 02:55:31;;;;;;;;;;;;;;;;;;5036012;28;836;-84
2021/07/27 03:00:43;;;;;;;;;;;;;;;;;;5036290;28;814;-84
2021/07/27 03:03:17;;;;;;;;;;;;;;;;;;5036221;28;877;-84
2021/07/27 03:05:54;;;;;;;;;;;;;;;;;;5051360;28;1035;-84
2021/07/27 03:10:59;;;;;;;;;;;;;;;;;;5036039;28;818;-84
2021/07/27 03:13:34;;;;;;;;;;;;;;;;;;5051309;28;1886;-84
2021/07/27 03:16:00;;;;;;;;;;;;;;;;;;5035917;28;908;-84
2021/07/27 03:18:34;;;;;;;;;;;;;;;;;;5051121;28;1351;-84
2021/07/27 03:21:02;;;;;;;;;;;;;;;;;;5036658;28;826;-84
2021/07/27 03:23:29;;;;;;;;;;;;;;;;;;5039945;28;822;-85
2021/07/27 03:25:56;;;;;;;;;;;;;;;;;;5055253;28;1326;-84
2021/07/27 03:28:23;;;;;;;;;;;;;;;;;;5039881;28;976;-84
2021/07/27 03:30:48;;;;;;;;;;;;;;;;;;5039954;28;921;-84
2021/07/27 03:33:19;;;;;;;;;;;;;;;;;;5055001;28;1878;-84
2021/07/27 03:35:46;;;;;;;;;;;;;;;;;;5054392;28;1248;-84
2021/07/27 03:40:56;;;;;;;;;;;;;;;;;;5039507;28;610;-85
2021/07/27 03:43:34;;;;;;;;;;;;;;;;;;5054818;28;1195;-84
2021/07/27 03:46:08;;;;;;;;;;;;;;;;;;5054952;28;1188;-84
2021/07/27 03:48:36;;;;;;;;;;;;;;;;;;5054889;28;1273;-84
2021/07/27 03:51:01;;;;;;;;;;;;;;;;;;5054741;28;1322;-84
2021/07/27 03:53:26;;;;;;;;;;;;;;;;;;5054346;28;1890;-84
2021/07/27 03:55:57;;;;;;;;;;;;;;;;;;5054865;28;1198;-84
2021/07/27 03:58:33;;;;;;;;;;;;;;;;;;5054899;28;1187;-84
2021/07/27 04:03:34;;;;;;;;;;;;;;;;;;5039575;28;833;-84
2021/07/27 04:06:01;;;;;;;;;;;;;;;;;;5038484;28;876;-84
2021/07/27 04:08:40;;;;;;;;;;;;;;;;;;5053849;28;1771;-84
2021/07/27 04:11:06;;;;;;;;;;;;;;;;;;5054539;28;1207;-85
2021/07/27 04:13:49;;;;;;;;;;;;;;;;;;5038339;28;1878;-84
2021/07/27 04:16:15;;;;;;;;;;;;;;;;;;5038841;28;897;-84
2021/07/27 04:18:48;;;;;;;;;;;;;;;;;;5054148;28;1625;-84
2021/07/27 04:21:14;;;;;;;;;;;;;;;;;;5037726;28;1217;-84
2021/07/27 04:23:45;;;;;;;;;;;;;;;;;;5037010;28;1322;-84
2021/07/27 04:26:25;;;;;;;;;;;;;;;;;;5053464;28;1318;-84
2021/07/27 04:28:51;;;;;;;;;;;;;;;;;;5053238;28;1195;-84
2021/07/27 04:31:18;;;;;;;;;;;;;;;;;;5038625;28;905;-84
2021/07/27 04:36:22;;;;;;;;;;;;;;;;;;5038782;28;799;-84
2021/07/27 04:38:56;;;;;;;;;;;;;;;;;;5038554;28;885;-84
2021/07/27 04:41:30;;;;;;;;;;;;;;;;;;5038425;28;842;-84
2021/07/27 04:43:56;;;;;;;;;;;;;;;;;;5053701;28;1182;-84
2021/07/27 04:46:37;;;;;;;;;;;;;;;;;;5053595;28;1291;-84
2021/07/27 04:51:53;;;;;;;;;;;;;;;;;;5036011;28;1052;-84
2021/07/27 04:54:27;;;;;;;;;;;;;;;;;;5036180;28;1969;-84
2021/07/27 04:56:53;;;;;;;;;;;;;;;;;;5019563;28;1228;-84
2021/07/27 04:59:27;;;;;;;;;;;;;;;;;;5036103;28;941;-84
2021/07/27 05:01:54;;;;;;;;;;;;;;;;;;5036017;28;969;-85
2021/07/27 05:07:02;;;;;;;;;;;;;;;;;;5035757;28;1711;-84
2021/07/27 05:09:37;;;;;;;;;;;;;;;;;;5052431;28;1092;-84
2021/07/27 05:12:03;;;;;;;;;;;;;;;;;;5035713;28;874;-84
2021/07/27 05:14:39;;;;;;;;;;;;;;;;;;5035738;28;1878;-84
2021/07/27 05:17:10;;;;;;;;;;;;;;;;;;5052212;28;1492;-84
2021/07/27 05:19:50;;;;;;;;;;;;;;;;;;5035734;28;1647;-84
2021/07/27 05:25:09;;;;;;;;;;;;;;;;;;5035738;28;598;-84
2021/07/27 05:27:40;;;;;;;;;;;;;;;;;;5035748;28;1809;-84
2021/07/27 05:30:24;;;;;;;;;;;;;;;;;;5036429;28;1241;-84
2021/07/27 05:35:42;;;;;;;;;;;;;;;;;;5035583;28;914;-85
2021/07/27 05:38:23;;;;;;;;;;;;;;;;;;5035291;28;904;-85
2021/07/27 05:40:49;;;;;;;;;;;;;;;;;;5035406;28;1079;-84
2021/07/27 05:45:50;;;;;;;;;;;;;;;;;;5035162;28;1088;-85
2021/07/27 05:48:17;;;;;;;;;;;;;;;;;;5018742;28;1265;-84
2021/07/27 05:50:44;;;;;;;;;;;;;;;;;;5018716;28;1164;-84
2021/07/27 05:53:09;;;;;;;;;;;;;;;;;;5035040;28;1971;-84
2021/07/27 05:55:36;;;;;;;;;;;;;;;;;;5035026;28;917;-84
2021/07/27 05:58:02;;;;;;;;;;;;;;;;;;5035198;28;957;-84
2021/07/27 06:00:27;;;;;;;;;;;;;;;;;;5028994;28;1318;-84
2021/07/27 06:02:54;;;;;;;;;;;;;;;;;;5035005;28;1212;-84
2021/07/27 06:08:12;;;;;;;;;;;;;;;;;;5015242;28;661;-85
2021/07/27 06:10:52;;;;;;;;;;;;;;;;;;5023058;28;1643;-85
2021/07/27 06:13:24;;;;;;;;;;;;;;;;;;5032398;28;1953;-85
2021/07/27 06:15:49;;;;;;;;;;;;;;;;;;5035673;28;1175;-84
2021/07/27 06:18:14;;;;;;;;;;;;;;;;;;5035559;28;1373;-84
2021/07/27 06:20:48;;;;;;;;;;;;;;;;;;5035369;28;1263;-84
2021/07/27 06:23:15;;;;;;;;;;;;;;;;;;5036788;28;878;-85
2021/07/27 06:25:50;;;;;;;;;;;;;;;;;;5035298;28;1197;-85
2021/07/27 06:28:24;;;;;;;;;;;;;;;;;;5035386;28;1242;-85
2021/07/27 06:30:50;;;;;;;;;;;;;;;;;;5036306;28;873;-85
2021/07/27 06:33:16;;;;;;;;;;;;;;;;;;5033547;28;1871;-84
2021/07/27 06:35:43;;;;;;;;;;;;;;;;;;5035717;28;977;-85
2021/07/27 06:38:22;;;;;;;;;;;;;;;;;;5048070;28;1299;-85
2021/07/27 06:43:40;;;;;;;;;;;;;;;;;;5034081;28;1045;-86
2021/07/27 06:46:06;;;;;;;;;;;;;;;;;;5027850;28;1164;-86
2021/07/27 06:48:32;;;;;;;;;;;;;;;;;;5020434;28;1245;-85
2021/07/27 06:51:00;;;;;;;;;;;;;;;;;;5032940;28;1746;-85
2021/07/27 06:53:26;;;;;;;;;;;;;;;;;;5022688;28;1910;-85
2021/07/27 06:56:07;;;;;;;;;;;;;;;;;;5017005;28;1619;-86
2021/07/27 06:58:42;;;;;;;;;;;;;;;;;;5033971;28;1215;-85
2021/07/27 07:03:53;;;;;;;;;;;;;;;;;;5033309;28;969;-86
2021/07/27 07:06:28;;;;;;;;;;;;;;;;;;5017076;28;1628;-86
2021/07/27 07:09:11;;;;;;;;;;;;;;;;;;5032021;28;1054;-86
2021/07/27 07:11:38;;;;;;;;;;;;;;;;;;5032225;28;1455;-86
2021/07/27 07:17:02;;;;;;;;;;;;;;;;;;5033493;28;1386;-85
2021/07/27 07:22:12;;;;;;;;;;;;;;;;;;5034352;28;1151;-84
2021/07/27 07:24:39;;;;;;;;;;;;;;;;;;5035436;28;1641;-87
2021/07/27 07:27:15;;;;;;;;;;;;;;;;;;5050687;28;1605;-82
2021/07/27 07:29:41;;;;;;;;;;;;;;;;;;5050420;28;1533;-83
2021/07/27 07:32:15;;;;;;;;;;;;;;;;;;5034827;28;1288;-83
2021/07/27 07:34:41;;;;;;;;;;;;;;;;;;5031027;28;1911;-84
2021/07/27 07:37:08;;;;;;;;;;;;;;;;;;5035102;28;1222;-83
2021/07/27 07:39:44;;;;;;;;;;;;;;;;;;5034804;28;1286;-82
2021/07/27 07:42:18;;;;;;;;;;;;;;;;;;5051717;28;1211;-87
2021/07/27 07:44:44;;;;;;;;;;;;;;;;;;5051999;28;1578;-82
2021/07/27 07:47:11;;;;;;;;;;;;;;;;;;5035720;28;1765;-84
2021/07/27 07:49:37;;;;;;;;;;;;;;;;;;5034955;28;1606;-82
2021/07/27 07:52:02;;;;;;;;;;;;;;;;;;5036382;28;1299;-81
2021/07/27 07:54:27;;;;;;;;;;;;;;;;;;5054819;28;1977;-81
2021/07/27 07:56:58;;;;;;;;;;;;;;;;;;5053633;28;1306;-83
2021/07/27 07:59:32;;;;;;;;;;;;;;;;;;5053346;28;1769;-83
2021/07/27 08:02:04;;;;;;;;;;;;;;;;;;5035679;28;1417;-81
2021/07/27 08:04:29;;;;;;;;;;;;;;;;;;5040304;28;1477;-82
2021/07/27 08:06:55;;;;;;;;;;;;;;;;;;5054128;28;1246;-83
2021/07/27 08:09:27;;;;;;;;;;;;;;;;;;5057384;28;1511;-82
2021/07/27 08:11:54;;;;;;;;;;;;;;;;;;5058353;28;1635;-84
2021/07/27 08:17:20;;;;;;;;;;;;;;;;;;5058979;28;1384;-89
2021/07/27 08:19:56;;;;;;;;;;;;;;;;;;5056765;28;1477;-88
2021/07/27 08:28:02;;;;;;;;;;;;;;;;;;5016639;28;1349;-85
2021/07/27 08:30:28;;;;;;;;;;;;;;;;;;5016527;28;1188;-88
2021/07/27 08:33:04;;;;;;;;;;;;;;;;;;5016657;28;1882;-84
2021/07/27 08:35:46;;;;;;;;;;;;;;;;;;5004116;28;1357;-82
2021/07/27 08:38:20;;;;;;;;;;;;;;;;;;5005443;28;1177;-84
2021/07/27 08:40:57;;;;;;;;;;;;;;;;;;5016371;28;1240;-81
2021/07/27 08:43:23;;;;;;;;;;;;;;;;;;5015514;28;1398;-82
2021/07/27 08:48:33;;;;;;;;;;;;;;;;;;5003809;28;1364;-84
2021/07/27 08:51:09;;;;;;;;;;;;;;;;;;5000153;28;1444;-84
2021/07/27 08:53:34;;;;;;;;;;;;;;;;;;5014073;28;1980;-84
2021/07/27 08:56:12;;;;;;;;;;;;;;;;;;5015956;28;1460;-83
2021/07/27 08:58:38;;;;;;;;;;;;;;;;;;4992443;28;1407;-80
2021/07/27 09:01:04;;;;;;;;;;;;;;;;;;5017647;28;1597;-80
2021/07/27 09:03:31;;;;;;;;;;;;;;;;;;5037865;28;925;-80
2021/07/27 09:06:05;;;;;;;;;;;;;;;;;;5037644;28;925;-80
2021/07/27 09:08:30;;;;;;;;;;;;;;;;;;5033001;28;1219;-81
2021/07/27 09:11:12;;;;;;;;;;;;;;;;;;5016768;28;1394;-81
2021/07/27 09:13:39;;;;;;;;;;;;;;;;;;5026205;28;1878;-80
2021/07/27 09:16:06;;;;;;;;;;;;;;;;;;5036110;28;933;-81
2021/07/27 09:18:34;;;;;;;;;;;;;;;;;;5036296;28;1536;-79
2021/07/27 09:21:00;;;;;;;;;;;;;;;;;;5036016;28;1608;-80
2021/07/27 09:23:35;;;;;;;;;;;;;;;;;;5036084;28;1342;-81
2021/07/27 09:26:01;;;;;;;;;;;;;;;;;;5036094;28;1191;-80
2021/07/27 09:28:28;;;;;;;;;;;;;;;;;;5035968;28;1159;-80
2021/07/27 09:33:24;;;;;;;;;;;;;;;;;;5038622;28;1949;-79
2021/07/27 09:35:51;;;;;;;;;;;;;;;;;;5035679;28;1652;-80
2021/07/27 09:38:35;;;;;;;;;;;;;;;;;;5034907;28;1412;-79
2021/07/27 09:41:19;;;;;;;;;;;;;;;;;;5029516;28;1427;-80
2021/07/27 09:46:39;;;;;;;;;;;;;;;;;;5031061;28;1266;-80
2021/07/27 09:49:10;;;;;;;;;;;;;;;;;;5023646;28;1464;-80
2021/07/27 09:51:38;;;;;;;;;;;;;;;;;;5034794;28;1343;-81
2021/07/27 09:54:03;;;;;;;;;;;;;;;;;;5048374;28;1906;-79
2021/07/27 09:56:36;;;;;;;;;;;;;;;;;;5034964;28;1233;-79
2021/07/27 09:59:01;;;;;;;;;;;;;;;;;;5036670;28;850;-79
2021/07/27 10:01:28;;;;;;;;;;;;;;;;;;5035981;28;1328;-79
2021/07/27 10:03:53;;;;;;;;;;;;;;;;;;5047927;28;1290;-79
2021/07/27 10:06:24;;;;;;;;;;;;;;;;;;5048784;28;1251;-79
2021/07/27 10:08:50;;;;;;;;;;;;;;;;;;5048841;28;1316;-79
2021/07/27 10:11:17;;;;;;;;;;;;;;;;;;5016767;28;929;-79
2021/07/27 10:13:50;;;;;;;;;;;;;;;;;;5048469;28;1939;-79
2021/07/27 10:16:23;;;;;;;;;;;;;;;;;;5016754;28;873;-79
2021/07/27 10:18:57;;;;;;;;;;;;;;;;;;5048458;28;1266;-79
2021/07/27 10:21:34;;;;;;;;;;;;;;;;;;5048434;28;1280;-79
2021/07/27 10:24:00;;;;;;;;;;;;;;;;;;5016690;28;905;-80
2021/07/27 10:26:27;;;;;;;;;;;;;;;;;;5048410;28;1161;-79
2021/07/27 10:28:53;;;;;;;;;;;;;;;;;;5030202;28;1232;-79
2021/07/27 10:33:55;;;;;;;;;;;;;;;;;;5036390;28;1948;-79
2021/07/27 10:36:21;;;;;;;;;;;;;;;;;;5036126;28;905;-79
2021/07/27 10:38:48;;;;;;;;;;;;;;;;;;5051319;28;1182;-79
2021/07/27 10:41:14;;;;;;;;;;;;;;;;;;5051371;28;1317;-80
2021/07/27 10:43:40;;;;;;;;;;;;;;;;;;5051430;28;1310;-79
2021/07/27 10:46:10;;;;;;;;;;;;;;;;;;5051320;28;1218;-79
2021/07/27 10:48:36;;;;;;;;;;;;;;;;;;5035846;28;846;-79
2021/07/27 10:53:45;;;;;;;;;;;;;;;;;;5048506;28;1959;-79
2021/07/27 10:56:11;;;;;;;;;;;;;;;;;;5055692;28;823;-79
2021/07/27 10:58:37;;;;;;;;;;;;;;;;;;5054438;28;1310;-80
2021/07/27 11:01:08;;;;;;;;;;;;;;;;;;5054390;28;1374;-80
2021/07/27 11:03:35;;;;;;;;;;;;;;;;;;5055609;28;846;-80
2021/07/27 11:06:00;;;;;;;;;;;;;;;;;;5054165;28;1279;-80
2021/07/27 11:11:19;;;;;;;;;;;;;;;;;;4998669;28;1419;-79
2021/07/27 11:14:00;;;;;;;;;;;;;;;;;;4993825;28;1883;-80
2021/07/27 11:16:36;;;;;;;;;;;;;;;;;;5005169;28;1349;-79
2021/07/27 11:22:01;;;;;;;;;;;;;;;;;;4955317;29;1107;-79
2021/07/27 11:24:27;;;;;;;;;;;;;;;;;;4955364;28;1212;-81
2021/07/27 11:29:57;;;;;;;;;;;;;;;;;;4939952;29;1384;-93
2021/07/27 11:32:26;;;;;;;;;;;;;;;;;;4956579;29;1663;-92
2021/07/27 11:37:38;;;;;;;;;;;;;;;;;;4962278;29;1164;-96
2021/07/27 11:45:49;;;;;;;;;;;;;;;;;;4956753;29;1751;-94
2021/07/27 11:53:41;;;;;;;;;;;;;;;;;;4952670;29;1887;-92
2021/07/27 11:59:03;;;;;;;;;;;;;;;;;;5035069;28;1499;-91
2021/07/27 12:04:25;;;;;;;;;;;;;;;;;;4998914;28;1075;-93
2021/07/27 12:09:45;;;;;;;;;;;;;;;;;;4998116;28;933;-91
2021/07/27 12:14:53;;;;;;;;;;;;;;;;;;4998180;28;1964;-95
2021/07/27 12:20:02;;;;;;;;;;;;;;;;;;4998105;28;970;-93
2021/07/27 12:22:37;;;;;;;;;;;;;;;;;;5007307;28;1577;-93
2021/07/27 12:25:15;;;;;;;;;;;;;;;;;;5010012;28;1496;-91
2021/07/27 12:28:00;;;;;;;;;;;;;;;;;;4997337;28;1213;-88
2021/07/27 12:33:12;;;;;;;;;;;;;;;;;;4998085;28;1944;-90
2021/07/27 12:35:40;;;;;;;;;;;;;;;;;;5000754;28;1310;-87
2021/07/27 12:40:57;;;;;;;;;;;;;;;;;;5050663;28;1391;-88
2021/07/27 12:43:24;;;;;;;;;;;;;;;;;;5056826;28;1577;-88
2021/07/27 12:45:51;;;;;;;;;;;;;;;;;;5056957;28;1274;-88
2021/07/27 12:48:16;;;;;;;;;;;;;;;;;;5057042;28;1242;-89
2021/07/27 12:50:43;;;;;;;;;;;;;;;;;;5056938;28;1375;-90
2021/07/27 12:53:08;;;;;;;;;;;;;;;;;;5055022;28;1898;-88
2021/07/27 12:55:33;;;;;;;;;;;;;;;;;;5056221;28;1626;-89
2021/07/27 13:00:50;;;;;;;;;;;;;;;;;;5038589;28;1310;-90
2021/07/27 13:09:06;;;;;;;;;;;;;;;;;;5018239;28;1535;-89
2021/07/27 13:14:50;;;;;;;;;;;;;;;;;;5015357;28;1902;-90
2021/07/27 13:17:17;;;;;;;;;;;;;;;;;;5014669;28;1332;-81
2021/07/27 13:19:51;;;;;;;;;;;;;;;;;;5015573;28;1181;-83
2021/07/27 13:25:00;;;;;;;;;;;;;;;;;;5028412;28;1190;-81
2021/07/27 13:27:38;;;;;;;;;;;;;;;;;;5015366;28;1513;-81
2021/07/27 13:33:10;;;;;;;;;;;;;;;;;;4988054;28;1883;-90
2021/07/27 13:38:29;;;;;;;;;;;;;;;;;;4995312;28;1318;-89
2021/07/27 13:40:55;;;;;;;;;;;;;;;;;;4997272;28;1279;-92
2021/07/27 13:46:14;;;;;;;;;;;;;;;;;;5015268;28;1616;-84
2021/07/27 13:48:40;;;;;;;;;;;;;;;;;;4981654;28;1749;-81
2021/07/27 13:51:14;;;;;;;;;;;;;;;;;;4993927;28;1265;-89
2021/07/27 13:53:41;;;;;;;;;;;;;;;;;;4994375;28;1949;-84
2021/07/27 13:56:06;;;;;;;;;;;;;;;;;;5005430;28;1615;-84
2021/07/27 13:58:33;;;;;;;;;;;;;;;;;;4998375;28;1562;-82
2021/07/27 14:01:03;;;;;;;;;;;;;;;;;;4998555;28;1284;-81
2021/07/27 14:03:29;;;;;;;;;;;;;;;;;;5014999;28;913;-80
2021/07/27 14:05:55;;;;;;;;;;;;;;;;;;4998042;28;1396;-81
2021/07/27 14:08:27;;;;;;;;;;;;;;;;;;5019613;28;1295;-81
2021/07/27 14:11:02;;;;;;;;;;;;;;;;;;5031999;28;1231;-82
2021/07/27 14:13:27;;;;;;;;;;;;;;;;;;5031830;28;1987;-82
2021/07/27 14:16:05;;;;;;;;;;;;;;;;;;5013447;28;1523;-81
2021/07/27 14:21:31;;;;;;;;;;;;;;;;;;5014382;28;1168;-81
2021/07/27 14:23:57;;;;;;;;;;;;;;;;;;4994517;28;1984;-81
2021/07/27 14:26:33;;;;;;;;;;;;;;;;;;4994809;28;1524;-82
2021/07/27 14:28:59;;;;;;;;;;;;;;;;;;4995065;28;922;-82
2021/07/27 14:31:36;;;;;;;;;;;;;;;;;;4962322;28;1361;-82
2021/07/27 14:34:02;;;;;;;;;;;;;;;;;;4975629;28;1952;-82
2021/07/27 14:39:22;;;;;;;;;;;;;;;;;;4975113;28;1060;-82
2021/07/27 14:41:48;;;;;;;;;;;;;;;;;;4958214;28;1346;-81
2021/07/27 14:44:22;;;;;;;;;;;;;;;;;;4957493;28;1539;-81
2021/07/27 14:47:02;;;;;;;;;;;;;;;;;;4974292;28;1391;-84
2021/07/27 14:49:27;;;;;;;;;;;;;;;;;;4958702;28;1239;-81
2021/07/27 14:51:59;;;;;;;;;;;;;;;;;;4974689;28;1086;-83
2021/07/27 14:54:24;;;;;;;;;;;;;;;;;;4979897;28;1891;-84
2021/07/27 14:56:49;;;;;;;;;;;;;;;;;;4993840;28;1659;-81
2021/07/27 14:59:15;;;;;;;;;;;;;;;;;;5012724;28;1460;-81
2021/07/27 15:01:41;;;;;;;;;;;;;;;;;;5010312;28;1599;-81
2021/07/27 15:04:06;;;;;;;;;;;;;;;;;;5010684;28;1283;-81
2021/07/27 15:06:32;;;;;;;;;;;;;;;;;;4994296;28;945;-81
2021/07/27 15:08:59;;;;;;;;;;;;;;;;;;5010601;28;1165;-81
2021/07/27 15:11:40;;;;;;;;;;;;;;;;;;4994445;28;973;-81
2021/07/27 15:14:06;;;;;;;;;;;;;;;;;;4994308;28;1981;-82
2021/07/27 15:16:37;;;;;;;;;;;;;;;;;;5027028;28;1290;-81
2021/07/27 15:19:04;;;;;;;;;;;;;;;;;;5015874;28;910;-81
2021/07/27 15:21:38;;;;;;;;;;;;;;;;;;5015997;28;985;-81
2021/07/27 15:27:00;;;;;;;;;;;;;;;;;;5015834;28;653;-81
2021/07/27 15:29:27;;;;;;;;;;;;;;;;;;5031090;28;1274;-81
2021/07/27 15:32:07;;;;;;;;;;;;;;;;;;5030871;28;1139;-81
2021/07/27 15:34:46;;;;;;;;;;;;;;;;;;5030789;28;1890;-81
2021/07/27 15:37:11;;;;;;;;;;;;;;;;;;5015748;28;901;-81
2021/07/27 15:39:36;;;;;;;;;;;;;;;;;;5030770;28;1199;-81
2021/07/27 15:42:08;;;;;;;;;;;;;;;;;;5030872;28;1140;-81
2021/07/27 15:44:35;;;;;;;;;;;;;;;;;;5015687;28;881;-80
2021/07/27 15:47:02;;;;;;;;;;;;;;;;;;5030868;28;1184;-81
2021/07/27 15:49:28;;;;;;;;;;;;;;;;;;5030735;28;1232;-81
2021/07/27 15:51:53;;;;;;;;;;;;;;;;;;5030782;28;1211;-81
2021/07/27 15:54:18;;;;;;;;;;;;;;;;;;5030514;28;1957;-81
2021/07/27 15:56:43;;;;;;;;;;;;;;;;;;5030859;28;1284;-80
2021/07/27 15:59:24;;;;;;;;;;;;;;;;;;5030610;28;1277;-81
2021/07/27 16:02:10;;;;;;;;;;;;;;;;;;5030689;28;1344;-81
2021/07/27 16:07:06;;;;;;;;;;;;;;;;;;5035471;28;818;-81
2021/07/27 16:09:31;;;;;;;;;;;;;;;;;;5050528;28;1288;-80
2021/07/27 16:12:08;;;;;;;;;;;;;;;;;;5046461;28;1278;-80
2021/07/27 16:14:41;;;;;;;;;;;;;;;;;;5047211;28;1911;-80
2021/07/27 16:19:36;;;;;;;;;;;;;;;;;;5034915;28;826;-81
2021/07/27 16:22:01;;;;;;;;;;;;;;;;;;5046954;28;1186;-81
2021/07/27 16:24:36;;;;;;;;;;;;;;;;;;5047038;28;1190;-81
2021/07/27 16:27:02;;;;;;;;;;;;;;;;;;5015415;28;898;-80
2021/07/27 16:29:28;;;;;;;;;;;;;;;;;;5048601;28;1163;-80
2021/07/27 16:31:55;;;;;;;;;;;;;;;;;;5018652;28;994;-80
2021/07/27 16:34:31;;;;;;;;;;;;;;;;;;5053637;28;1886;-81
2021/07/27 16:36:56;;;;;;;;;;;;;;;;;;5053845;28;1215;-81
2021/07/27 16:39:27;;;;;;;;;;;;;;;;;;5053864;28;1159;-81
2021/07/27 16:42:00;;;;;;;;;;;;;;;;;;5053684;28;1367;-80
2021/07/27 16:44:27;;;;;;;;;;;;;;;;;;5038169;28;909;-81
2021/07/27 16:46:53;;;;;;;;;;;;;;;;;;5038347;28;1000;-81
2021/07/27 16:49:21;;;;;;;;;;;;;;;;;;5038261;28;980;-80
2021/07/27 16:54:20;;;;;;;;;;;;;;;;;;5037718;28;1898;-80
2021/07/27 16:56:45;;;;;;;;;;;;;;;;;;5018191;28;925;-80
2021/07/27 16:59:12;;;;;;;;;;;;;;;;;;5018197;28;780;-80
2021/07/27 17:01:37;;;;;;;;;;;;;;;;;;5033312;28;1164;-79
2021/07/27 17:09:38;;;;;;;;;;;;;;;;;;5016036;28;932;-81
2021/07/27 17:12:05;;;;;;;;;;;;;;;;;;4999579;28;1192;-82
2021/07/27 17:14:33;;;;;;;;;;;;;;;;;;4999401;28;1985;-81
2021/07/27 17:16:59;;;;;;;;;;;;;;;;;;4999506;28;1525;-81
2021/07/27 17:19:24;;;;;;;;;;;;;;;;;;5016025;28;850;-81
2021/07/27 17:21:50;;;;;;;;;;;;;;;;;;4999703;28;1260;-81
2021/07/27 17:24:16;;;;;;;;;;;;;;;;;;4999412;28;1275;-81
2021/07/27 17:26:42;;;;;;;;;;;;;;;;;;5015767;28;988;-80
2021/07/27 17:29:08;;;;;;;;;;;;;;;;;;4999385;28;1148;-80
2021/07/27 17:31:36;;;;;;;;;;;;;;;;;;4999230;28;1278;-80
2021/07/27 17:34:02;;;;;;;;;;;;;;;;;;4999284;28;1879;-81
2021/07/27 17:36:28;;;;;;;;;;;;;;;;;;5015605;28;1021;-81
2021/07/27 17:38:53;;;;;;;;;;;;;;;;;;4999018;28;1268;-81
2021/07/27 17:41:19;;;;;;;;;;;;;;;;;;5015147;28;965;-80
2021/07/27 17:43:46;;;;;;;;;;;;;;;;;;5015453;28;942;-80
2021/07/27 17:46:21;;;;;;;;;;;;;;;;;;5016220;28;931;-81
2021/07/27 17:49:01;;;;;;;;;;;;;;;;;;5032746;28;1208;-81
2021/07/27 17:51:27;;;;;;;;;;;;;;;;;;5017331;28;909;-81
2021/07/27 17:54:02;;;;;;;;;;;;;;;;;;5032504;28;2198;-81
2021/07/27 17:56:27;;;;;;;;;;;;;;;;;;5050030;28;1315;-81
2021/07/27 17:58:53;;;;;;;;;;;;;;;;;;5036811;28;825;-81
2021/07/27 18:01:20;;;;;;;;;;;;;;;;;;5052183;28;1399;-80
2021/07/27 18:03:48;;;;;;;;;;;;;;;;;;5036825;28;981;-81
2021/07/27 18:06:28;;;;;;;;;;;;;;;;;;5036969;28;818;-81
2021/07/27 18:08:53;;;;;;;;;;;;;;;;;;5052243;28;1332;-81
2021/07/27 18:11:25;;;;;;;;;;;;;;;;;;5052132;28;1320;-80
2021/07/27 18:13:56;;;;;;;;;;;;;;;;;;5036889;28;1974;-81
2021/07/27 18:16:32;;;;;;;;;;;;;;;;;;5036535;28;920;-80
2021/07/27 18:18:58;;;;;;;;;;;;;;;;;;5036769;28;944;-81
2021/07/27 18:21:32;;;;;;;;;;;;;;;;;;5051952;28;1187;-81
2021/07/27 18:24:07;;;;;;;;;;;;;;;;;;5051893;28;1359;-81
2021/07/27 18:29:16;;;;;;;;;;;;;;;;;;5036485;28;664;-81
2021/07/27 18:31:44;;;;;;;;;;;;;;;;;;5051770;28;1189;-80
2021/07/27 18:34:10;;;;;;;;;;;;;;;;;;5051521;28;1882;-81
2021/07/27 18:36:54;;;;;;;;;;;;;;;;;;5051614;28;1255;-80
2021/07/27 18:39:27;;;;;;;;;;;;;;;;;;5051562;28;1267;-80
2021/07/27 18:41:55;;;;;;;;;;;;;;;;;;5051478;28;1199;-80
2021/07/27 18:44:39;;;;;;;;;;;;;;;;;;5036010;28;881;-80
2021/07/27 18:47:12;;;;;;;;;;;;;;;;;;5051531;28;1303;-82
2021/07/27 18:49:39;;;;;;;;;;;;;;;;;;5051509;28;1399;-81
2021/07/27 18:52:12;;;;;;;;;;;;;;;;;;5050683;28;1198;-82
2021/07/27 18:54:38;;;;;;;;;;;;;;;;;;5050695;28;1941;-80
2021/07/27 18:57:03;;;;;;;;;;;;;;;;;;5031420;28;1184;-81
2021/07/27 18:59:36;;;;;;;;;;;;;;;;;;5031281;28;1279;-81
2021/07/27 19:02:07;;;;;;;;;;;;;;;;;;5031392;28;1364;-80
2021/07/27 19:04:39;;;;;;;;;;;;;;;;;;5031227;28;1215;-81
2021/07/27 19:12:41;;;;;;;;;;;;;;;;;;4994351;28;626;-80
2021/07/27 19:15:07;;;;;;;;;;;;;;;;;;4994491;28;1970;-80
2021/07/27 19:17:45;;;;;;;;;;;;;;;;;;4994272;28;923;-81
2021/07/27 19:20:11;;;;;;;;;;;;;;;;;;4994222;28;1235;-81
2021/07/27 19:22:38;;;;;;;;;;;;;;;;;;4994169;28;1177;-81
2021/07/27 19:25:04;;;;;;;;;;;;;;;;;;4994226;28;1306;-81
2021/07/27 19:27:31;;;;;;;;;;;;;;;;;;4994139;28;1229;-80
2021/07/27 19:29:57;;;;;;;;;;;;;;;;;;4994078;28;1157;-81
2021/07/27 19:32:22;;;;;;;;;;;;;;;;;;4994071;28;1308;-81
2021/07/27 19:34:56;;;;;;;;;;;;;;;;;;4994350;28;1952;-81
2021/07/27 19:37:22;;;;;;;;;;;;;;;;;;4994258;28;855;-82
2021/07/27 19:39:49;;;;;;;;;;;;;;;;;;4993988;28;1246;-81
2021/07/27 19:45:14;;;;;;;;;;;;;;;;;;4994145;28;839;-81
2021/07/27 19:48:12;;;;;;;;;;;;;;;;;;5026549;28;1220;-82
2021/07/27 19:50:37;;;;;;;;;;;;;;;;;;5015553;28;1084;-81
2021/07/27 19:53:03;;;;;;;;;;;;;;;;;;5030989;28;1399;-81
2021/07/27 19:55:31;;;;;;;;;;;;;;;;;;5021118;28;1878;-81
2021/07/27 19:57:56;;;;;;;;;;;;;;;;;;5030816;28;1347;-81
2021/07/27 20:00:29;;;;;;;;;;;;;;;;;;5030723;28;1237;-81
2021/07/27 20:02:54;;;;;;;;;;;;;;;;;;5031426;28;1330;-81
2021/07/27 20:05:25;;;;;;;;;;;;;;;;;;5034548;28;1320;-81
2021/07/27 20:08:08;;;;;;;;;;;;;;;;;;5034619;28;1480;-81
2021/07/27 20:13:36;;;;;;;;;;;;;;;;;;5016818;28;1973;-80
2021/07/27 20:16:12;;;;;;;;;;;;;;;;;;5000677;28;1401;-81
2021/07/27 20:21:34;;;;;;;;;;;;;;;;;;4977855;28;1045;-81
2021/07/27 20:24:00;;;;;;;;;;;;;;;;;;4961791;28;1178;-81
2021/07/27 20:26:25;;;;;;;;;;;;;;;;;;4961738;28;1208;-81
2021/07/27 20:28:52;;;;;;;;;;;;;;;;;;4961522;28;1203;-81
2021/07/27 20:31:31;;;;;;;;;;;;;;;;;;4977697;28;1093;-81
2021/07/27 20:33:57;;;;;;;;;;;;;;;;;;4961392;28;1958;-81
2021/07/27 20:36:23;;;;;;;;;;;;;;;;;;4961296;28;1225;-81
2021/07/27 20:39:09;;;;;;;;;;;;;;;;;;4961343;28;1193;-80
2021/07/27 20:41:37;;;;;;;;;;;;;;;;;;4977526;28;831;-81
2021/07/27 20:44:03;;;;;;;;;;;;;;;;;;4977594;28;1069;-81
2021/07/27 20:46:30;;;;;;;;;;;;;;;;;;4961430;28;1178;-81
2021/07/27 20:49:08;;;;;;;;;;;;;;;;;;4958866;28;1364;-81